Time;durP1;ratioP1;P1;durP2;ratioP2;P2;SDS_P1;SDS_P2;PMS_P1;PMS_P2;Temp;Humidity;BMP_temperature;BMP_pressure;BME280_temperature;BME280_humidity;BME280_pressure;Samples;Min_cycle;Max_cycle;Signal;HPM_P1;HPM_P2
2021/10/11 00:02:20;;;;;;;;;;;;;;;20.25;91.57;102826.38;7280742;19;153248;-53
2021/10/11 00:04:47;;;;;;;;;;;;;;;20.25;91.40;102828.31;7282112;19;153402;-53
2021/10/11 00:07:13;;;;;;;;;;;;;;;20.24;91.35;102829.41;7280957;19;151822;-53
2021/10/11 00:09:40;;;;;;;;;;;;;;;20.24;91.93;102841.50;7282432;19;152730;-52
2021/10/11 00:12:07;;;;;;;;;;;;;;;20.24;91.88;102835.03;7282418;19;153211;-53
2021/10/11 00:14:33;;;;;;;;;;;;;;;20.23;92.10;102825.75;7282942;19;152538;-52
2021/10/11 00:17:00;;;;;;;;;;;;;;;20.23;92.19;102828.56;7280381;19;152574;-52
2021/10/11 00:19:33;;;;;;;;;;;;;;;20.23;91.96;102834.19;7290596;19;153215;-53
2021/10/11 00:22:00;;;;;;;;;;;;;;;20.22;92.19;102826.88;7282996;19;153584;-53
2021/10/11 00:24:26;;;;;;;;;;;;;;;20.22;91.98;102831.63;7280621;19;153478;-53
2021/10/11 00:26:53;;;;;;;;;;;;;;;20.22;92.22;102826.88;7281985;19;151754;-52
2021/10/11 00:29:20;;;;;;;;;;;;;;;20.22;92.47;102832.47;7283197;19;151679;-52
2021/10/11 00:31:47;;;;;;;;;;;;;;;20.24;92.08;102832.22;7281676;19;153455;-53
2021/10/11 00:34:13;;;;;;;;;;;;;;;20.22;92.62;102828.81;7283890;19;151974;-53
2021/10/11 00:36:40;;;;;;;;;;;;;;;20.22;92.31;102832.47;7281153;19;153960;-52
2021/10/11 00:39:07;;;;;;;;;;;;;;;20.23;92.25;102834.19;7276194;19;153387;-52
2021/10/11 00:41:34;;;;;;;;;;;;;;;20.21;92.17;102833.63;7288694;19;151853;-53
2021/10/11 00:44:01;;;;;;;;;;;;;;;20.22;92.39;102831.63;7280716;19;154242;-53
2021/10/11 00:46:27;;;;;;;;;;;;;;;20.23;92.56;102836.13;7278036;19;151916;-52
2021/10/11 00:48:54;;;;;;;;;;;;;;;20.21;92.74;102838.38;7276443;19;153309;-53
2021/10/11 00:51:21;;;;;;;;;;;;;;;20.23;92.73;102834.19;7280997;19;154190;-53
2021/10/11 00:53:47;;;;;;;;;;;;;;;20.21;93.01;102832.75;7281246;19;152057;-53
2021/10/11 00:56:14;;;;;;;;;;;;;;;20.20;93.01;102837.53;7283093;19;153591;-53
2021/10/11 00:58:41;;;;;;;;;;;;;;;20.20;92.54;102845.94;7278926;19;153120;-53
2021/10/11 01:01:08;;;;;;;;;;;;;;;20.19;92.51;102847.03;7287305;19;152007;-53
2021/10/11 01:03:35;;;;;;;;;;;;;;;20.20;92.86;102840.31;7278704;19;153680;-52
2021/10/11 01:06:02;;;;;;;;;;;;;;;20.19;92.68;102840.56;7281394;19;151727;-52
2021/10/11 01:08:28;;;;;;;;;;;;;;;20.18;93.00;102842.53;7281940;19;152760;-52
2021/10/11 01:10:56;;;;;;;;;;;;;;;20.19;93.04;102840.56;7280292;19;153288;-53
2021/10/11 01:13:23;;;;;;;;;;;;;;;20.19;93.00;102841.44;7280841;19;151899;-52
2021/10/11 01:15:49;;;;;;;;;;;;;;;20.16;92.89;102844.78;7280258;19;153192;-52
2021/10/11 01:18:16;;;;;;;;;;;;;;;20.17;93.13;102845.63;7279808;19;154106;-53
2021/10/11 01:20:43;;;;;;;;;;;;;;;20.15;93.11;102840.25;7286734;19;152450;-53
2021/10/11 01:23:10;;;;;;;;;;;;;;;20.15;92.94;102840.25;7293989;19;153152;-53
2021/10/11 01:25:36;;;;;;;;;;;;;;;20.16;92.88;102838.31;7287018;19;151925;-52
2021/10/11 01:28:03;;;;;;;;;;;;;;;20.16;93.25;102841.09;7287787;19;153073;-53
2021/10/11 01:30:30;;;;;;;;;;;;;;;20.15;93.26;102837.44;7285794;19;153940;-53
2021/10/11 01:32:57;;;;;;;;;;;;;;;20.15;93.01;102842.22;7283326;19;152325;-53
2021/10/11 01:35:24;;;;;;;;;;;;;;;20.14;93.16;102841.34;7287056;19;154224;-52
2021/10/11 01:37:51;;;;;;;;;;;;;;;20.15;93.07;102839.41;7282514;19;153917;-53
2021/10/11 01:40:21;;;;;;;;;;;;;;;20.14;93.04;102837.69;7287112;19;151685;-52
2021/10/11 01:42:48;;;;;;;;;;;;;;;20.14;92.87;102843.31;7287244;19;152744;-53
2021/10/11 01:45:14;;;;;;;;;;;;;;;20.13;92.47;102836.00;7293973;19;154103;-53
2021/10/11 01:47:41;;;;;;;;;;;;;;;20.13;92.90;102827.56;7281404;19;152020;-53
2021/10/11 01:50:08;;;;;;;;;;;;;;;20.12;92.80;102834.31;7282974;19;153381;-53
2021/10/11 01:52:36;;;;;;;;;;;;;;;20.11;92.66;102835.41;7284648;19;152120;-52
2021/10/11 01:55:03;;;;;;;;;;;;;;;20.11;92.83;102838.22;7285203;19;152792;-53
2021/10/11 01:57:30;;;;;;;;;;;;;;;20.12;92.90;102832.38;7278209;19;153324;-53
2021/10/11 01:59:57;;;;;;;;;;;;;;;20.12;92.97;102834.31;7286389;19;152272;-53
2021/10/11 02:02:24;;;;;;;;;;;;;;;20.11;93.12;102841.03;7282180;19;152799;-53
2021/10/11 02:04:50;;;;;;;;;;;;;;;20.10;92.90;102830.91;7286176;19;152667;-53
2021/10/11 02:07:17;;;;;;;;;;;;;;;20.10;92.92;102837.38;7294717;19;152084;-53
2021/10/11 02:09:44;;;;;;;;;;;;;;;20.10;93.09;102830.91;7285529;19;153779;-53
2021/10/11 02:12:11;;;;;;;;;;;;;;;20.10;93.10;102817.72;7286234;19;151750;-53
2021/10/11 02:14:37;;;;;;;;;;;;;;;20.10;92.84;102811.25;7283596;19;153162;-53
2021/10/11 02:17:04;;;;;;;;;;;;;;;20.08;92.73;102800.28;7284950;19;154322;-53
2021/10/11 02:19:31;;;;;;;;;;;;;;;20.10;92.84;102811.25;7286771;19;151513;-52
2021/10/11 02:21:58;;;;;;;;;;;;;;;20.09;93.32;102804.81;7287781;19;152757;-53
2021/10/11 02:24:24;;;;;;;;;;;;;;;20.07;93.54;102809.84;7286799;19;152321;-53
2021/10/11 02:26:51;;;;;;;;;;;;;;;20.07;93.43;102800.56;7286164;19;151787;-53
2021/10/11 02:29:18;;;;;;;;;;;;;;;20.07;93.36;102797.78;7293193;19;153163;-52
2021/10/11 02:31:45;;;;;;;;;;;;;;;20.05;93.82;102795.22;7284392;19;151917;-53
2021/10/11 02:34:12;;;;;;;;;;;;;;;20.05;93.73;102795.22;7286458;19;153261;-53
2021/10/11 02:36:38;;;;;;;;;;;;;;;20.06;93.57;102798.88;7287260;19;153476;-53
2021/10/11 02:39:05;;;;;;;;;;;;;;;20.07;93.22;102793.00;7284948;19;151634;-53
2021/10/11 02:41:32;;;;;;;;;;;;;;;20.06;93.21;102788.50;7287517;19;153366;-53
2021/10/11 02:43:59;;;;;;;;;;;;;;;20.06;93.12;102788.50;7285048;19;153743;-53
2021/10/11 02:46:25;;;;;;;;;;;;;;;20.06;93.24;102791.31;7286124;19;151980;-53
2021/10/11 02:48:52;;;;;;;;;;;;;;;20.06;93.32;102790.44;7284086;19;152782;-53
2021/10/11 02:51:19;;;;;;;;;;;;;;;20.06;93.28;102787.66;7289713;19;153464;-53
2021/10/11 02:53:49;;;;;;;;;;;;;;;20.05;93.19;102798.03;7287816;19;152992;-53
2021/10/11 02:56:16;;;;;;;;;;;;;;;20.05;93.22;102792.41;7285122;19;154127;-52
2021/10/11 02:58:43;;;;;;;;;;;;;;;20.06;93.43;102787.66;7285993;19;151884;-53
2021/10/11 03:01:10;;;;;;;;;;;;;;;20.06;93.43;102794.09;7285997;19;153531;-53
2021/10/11 03:03:37;;;;;;;;;;;;;;;20.07;93.49;102797.78;7286565;19;153395;-53
2021/10/11 03:06:04;;;;;;;;;;;;;;;20.05;93.23;102800.81;7287494;19;151907;-53
2021/10/11 03:08:33;;;;;;;;;;;;;;;20.06;93.49;102805.34;7286152;19;153322;-53
2021/10/11 03:11:00;;;;;;;;;;;;;;;20.05;93.57;102795.22;7292241;19;153754;-53
2021/10/11 03:13:27;;;;;;;;;;;;;;;20.05;93.21;102798.03;7286574;19;152888;-52
2021/10/11 03:15:54;;;;;;;;;;;;;;;20.04;93.37;102801.94;7284941;19;153455;-53
2021/10/11 03:18:20;;;;;;;;;;;;;;;20.05;93.25;102798.03;7286118;19;151747;-53
2021/10/11 03:20:47;;;;;;;;;;;;;;;20.06;93.31;102798.88;7285916;19;152781;-53
2021/10/11 03:23:14;;;;;;;;;;;;;;;20.05;93.09;102805.59;7285690;19;153437;-53
2021/10/11 03:25:41;;;;;;;;;;;;;;;20.05;93.24;102823.28;7285895;19;152319;-53
2021/10/11 03:28:07;;;;;;;;;;;;;;;20.03;93.45;102810.63;7284246;19;152754;-52
2021/10/11 03:30:35;;;;;;;;;;;;;;;20.05;93.32;102805.59;7284176;19;153986;-54
2021/10/11 03:33:02;;;;;;;;;;;;;;;20.03;93.08;102797.44;7291189;19;152057;-53
2021/10/11 03:35:28;;;;;;;;;;;;;;;20.04;93.29;102801.06;7285008;19;152333;-53
2021/10/11 03:37:55;;;;;;;;;;;;;;;20.02;93.35;102798.53;7285661;19;151964;-53
2021/10/11 03:40:22;;;;;;;;;;;;;;;20.04;93.51;102796.31;7282498;19;153309;-53
2021/10/11 03:42:48;;;;;;;;;;;;;;;20.04;93.08;102795.47;7284643;19;154142;-53
2021/10/11 03:45:15;;;;;;;;;;;;;;;20.01;93.03;102791.22;7286634;19;151971;-53
2021/10/11 03:47:42;;;;;;;;;;;;;;;20.02;93.08;102773.28;7286072;19;152776;-53
2021/10/11 03:50:09;;;;;;;;;;;;;;;20.03;93.32;102775.00;7280381;19;153932;-53
2021/10/11 03:52:35;;;;;;;;;;;;;;;20.01;93.34;102788.44;7284907;19;152143;-53
2021/10/11 03:55:02;;;;;;;;;;;;;;;20.01;93.38;102784.78;7293074;19;152038;-53
2021/10/11 03:57:29;;;;;;;;;;;;;;;20.00;93.33;102778.31;7286793;19;151499;-53
2021/10/11 03:59:56;;;;;;;;;;;;;;;19.99;93.04;102774.66;7283238;19;152288;-53
2021/10/11 04:02:23;;;;;;;;;;;;;;;19.98;92.86;102772.13;7282252;19;153436;-53
2021/10/11 04:04:50;;;;;;;;;;;;;;;19.97;93.26;102776.88;7285390;19;151824;-53
2021/10/11 04:07:18;;;;;;;;;;;;;;;19.98;93.26;102769.31;7284028;19;153272;-53
2021/10/11 04:09:46;;;;;;;;;;;;;;;19.97;93.08;102771.28;7283918;19;154209;-53
2021/10/11 04:14:52;;;;;;;;;;;;;;;19.95;93.06;102775.44;7285406;19;153937;-52
2021/10/11 04:17:19;;;;;;;;;;;;;;;19.95;93.05;102786.66;7291938;19;153998;-53
2021/10/11 04:19:46;;;;;;;;;;;;;;;19.95;92.88;102781.88;7281813;19;152806;-53
2021/10/11 04:22:12;;;;;;;;;;;;;;;19.94;92.95;102783.00;7282915;19;153885;-53
2021/10/11 04:24:39;;;;;;;;;;;;;;;19.95;93.20;102778.22;7284143;19;151838;-53
2021/10/11 04:27:06;;;;;;;;;;;;;;;19.94;93.13;102797.03;7283585;19;152822;-53
2021/10/11 04:29:32;;;;;;;;;;;;;;;19.96;92.86;102797.63;7282165;19;154290;-53
2021/10/11 04:32:02;;;;;;;;;;;;;;;19.94;92.85;102782.16;7283787;19;152038;-53
2021/10/11 04:34:28;;;;;;;;;;;;;;;19.93;93.33;102778.50;7283174;19;152891;-53
2021/10/11 04:36:55;;;;;;;;;;;;;;;19.92;93.14;102767.53;7283386;19;153833;-53
2021/10/11 04:39:22;;;;;;;;;;;;;;;19.92;93.34;102787.19;7288643;19;151915;-53
2021/10/11 04:41:49;;;;;;;;;;;;;;;19.91;93.19;102779.88;7282572;19;153614;-53
2021/10/11 04:44:16;;;;;;;;;;;;;;;19.94;93.18;102782.16;7283199;19;151900;-53
2021/10/11 04:46:42;;;;;;;;;;;;;;;20.00;92.62;102781.13;7282101;19;152752;-53
2021/10/11 04:49:09;;;;;;;;;;;;;;;20.06;92.96;102780.06;7282832;19;152123;-52
2021/10/11 04:51:36;;;;;;;;;;;;;;;20.12;93.48;102769.78;7280579;19;151861;-52
2021/10/11 04:54:03;;;;;;;;;;;;;;;20.18;93.54;102768.72;7288834;19;152901;-53
2021/10/11 04:56:30;;;;;;;;;;;;;;;20.21;93.55;102773.81;7289613;19;153503;-53
2021/10/11 04:58:56;;;;;;;;;;;;;;;20.25;93.88;102780.59;7288408;19;151797;-53
2021/10/11 05:01:23;;;;;;;;;;;;;;;20.30;93.79;102786.31;7293234;19;153228;-53
2021/10/11 05:03:50;;;;;;;;;;;;;;;20.35;94.34;102789.19;7289574;19;151757;-53
2021/10/11 05:06:17;;;;;;;;;;;;;;;20.41;94.42;102796.53;7291074;19;153479;-53
2021/10/11 05:08:43;;;;;;;;;;;;;;;20.47;94.49;102787.06;7290966;19;153604;-53
2021/10/11 05:11:11;;;;;;;;;;;;;;;20.54;95.22;102798.94;7290301;19;151813;-53
2021/10/11 05:13:37;;;;;;;;;;;;;;;20.62;95.44;102794.84;7290827;19;153323;-53
2021/10/11 05:16:10;;;;;;;;;;;;;;;20.69;95.76;102789.84;7289542;19;152607;-53
2021/10/11 05:18:42;;;;;;;;;;;;;;;20.75;95.82;102798.06;7287813;19;151802;-53
2021/10/11 05:21:08;;;;;;;;;;;;;;;20.82;95.94;102795.88;7296125;19;152125;-53
2021/10/11 05:23:35;;;;;;;;;;;;;;;20.90;95.40;102788.91;7289823;19;151553;-53
2021/10/11 05:26:02;;;;;;;;;;;;;;;20.97;95.22;102792.38;7290586;19;152890;-53
2021/10/11 05:28:29;;;;;;;;;;;;;;;21.05;94.80;102803.13;7287982;19;151796;-54
2021/10/11 05:30:55;;;;;;;;;;;;;;;21.11;94.36;102793.63;7290319;19;152102;-53
2021/10/11 05:33:22;;;;;;;;;;;;;;;21.18;94.33;102797.09;7289037;19;152128;-53
2021/10/11 05:35:53;;;;;;;;;;;;;;;21.24;94.13;102800.81;7287097;19;153297;-53
2021/10/11 05:38:20;;;;;;;;;;;;;;;21.32;93.69;102805.91;7286928;19;152340;-53
2021/10/11 05:40:47;;;;;;;;;;;;;;;21.39;93.58;102806.56;7288129;19;152770;-53
2021/10/11 05:43:14;;;;;;;;;;;;;;;21.44;92.64;102803.75;7294278;19;153670;-53
2021/10/11 05:45:40;;;;;;;;;;;;;;;21.51;92.69;102809.16;7287162;19;152833;-53
2021/10/11 05:48:07;;;;;;;;;;;;;;;21.58;92.41;102813.44;7286770;19;153926;-52
2021/10/11 05:50:34;;;;;;;;;;;;;;;21.64;91.77;102815.16;7289479;19;151601;-52
2021/10/11 05:53:01;;;;;;;;;;;;;;;21.69;91.28;102815.22;7285904;19;152578;-53
2021/10/11 05:55:30;;;;;;;;;;;;;;;21.76;91.32;102819.75;7286633;19;153288;-53
2021/10/11 05:57:57;;;;;;;;;;;;;;;21.81;90.97;102815.00;7285730;19;152817;-53
2021/10/11 06:00:24;;;;;;;;;;;;;;;21.86;90.71;102811.38;7285839;19;152323;-53
2021/10/11 06:02:51;;;;;;;;;;;;;;;21.92;90.16;102819.56;7285459;19;153414;-53
2021/10/11 06:05:18;;;;;;;;;;;;;;;21.98;90.36;102818.53;7297655;19;151742;-53
2021/10/11 06:07:45;;;;;;;;;;;;;;;22.03;89.61;102814.91;7288123;19;153478;-53
2021/10/11 06:10:11;;;;;;;;;;;;;;;22.08;89.59;102812.94;7287752;19;151832;-53
2021/10/11 06:12:38;;;;;;;;;;;;;;;22.14;89.61;102811.00;7289519;19;152742;-53
2021/10/11 06:15:05;;;;;;;;;;;;;;;22.19;89.39;102819.47;7287042;19;152833;-52
2021/10/11 06:17:32;;;;;;;;;;;;;;;22.25;89.28;102811.91;7287104;19;151956;-53
2021/10/11 06:19:59;;;;;;;;;;;;;;;22.29;89.02;102807.41;7287423;19;153363;-53
2021/10/11 06:22:25;;;;;;;;;;;;;;;22.32;88.72;102816.16;7287779;19;153262;-53
2021/10/11 06:24:54;;;;;;;;;;;;;;;22.35;88.28;102811.94;7288169;19;151491;-53
2021/10/11 06:27:21;;;;;;;;;;;;;;;22.39;88.44;102828.03;7294864;19;152907;-52
2021/10/11 06:29:48;;;;;;;;;;;;;;;22.41;88.56;102833.34;7289583;19;151665;-53
2021/10/11 06:32:14;;;;;;;;;;;;;;;22.44;88.26;102827.19;7280425;19;152365;-53
2021/10/11 06:34:41;;;;;;;;;;;;;;;22.46;87.97;102837.06;7287075;19;154153;-53
2021/10/11 06:37:09;;;;;;;;;;;;;;;22.47;87.99;102838.75;7286702;19;151865;-53
2021/10/11 06:39:36;;;;;;;;;;;;;;;22.49;87.44;102836.50;7287245;19;152618;-53
2021/10/11 06:42:02;;;;;;;;;;;;;;;22.51;87.51;102845.53;7283029;19;153814;-53
2021/10/11 06:44:30;;;;;;;;;;;;;;;22.54;87.99;102846.94;7284189;19;152098;-52
2021/10/11 06:46:57;;;;;;;;;;;;;;;22.54;87.50;102842.16;7287649;19;152893;-53
2021/10/11 06:49:24;;;;;;;;;;;;;;;22.54;87.55;102850.59;7295473;19;153467;-53
2021/10/11 06:51:50;;;;;;;;;;;;;;;22.56;87.04;102845.56;7286461;19;152792;-53
2021/10/11 06:54:17;;;;;;;;;;;;;;;22.55;87.09;102849.47;7285175;19;154987;-53
2021/10/11 06:56:44;;;;;;;;;;;;;;;22.56;87.02;102850.34;7286464;19;151919;-53
2021/10/11 06:59:10;;;;;;;;;;;;;;;22.57;87.30;102863.31;7285786;19;153435;-53
2021/10/11 07:01:37;;;;;;;;;;;;;;;22.56;86.49;102868.09;7283528;19;153397;-53
2021/10/11 07:04:22;;;;;;;;;;;;;;;22.56;86.40;102865.28;7286189;19;152203;-52
2021/10/11 07:06:49;;;;;;;;;;;;;;;22.54;86.18;102864.69;7287570;19;153100;-53
2021/10/11 07:09:15;;;;;;;;;;;;;;;22.54;86.34;102867.50;7284627;19;153211;-52
2021/10/11 07:11:42;;;;;;;;;;;;;;;22.54;86.43;102875.09;7294249;19;151923;-53
2021/10/11 07:14:09;;;;;;;;;;;;;;;22.53;86.19;102864.97;7282693;19;152518;-53
2021/10/11 07:16:48;;;;;;;;;;;;;;;22.52;86.65;102857.66;7284650;19;151888;-53
2021/10/11 07:19:15;;;;;;;;;;;;;;;22.51;86.54;102859.63;7283788;19;152814;-53
2021/10/11 07:21:42;;;;;;;;;;;;;;;22.51;86.64;102870.03;7283123;19;153527;-52
2021/10/11 07:24:14;;;;;;;;;;;;;;;22.49;86.38;102863.81;7284844;19;151926;-53
2021/10/11 07:26:41;;;;;;;;;;;;;;;22.49;86.66;102867.47;7284683;19;152612;-53
2021/10/11 07:29:08;;;;;;;;;;;;;;;22.47;86.45;102872.56;7284071;19;153226;-53
2021/10/11 07:31:35;;;;;;;;;;;;;;;22.47;86.42;102877.34;7292992;19;152129;-53
2021/10/11 07:34:01;;;;;;;;;;;;;;;22.44;86.11;102881.53;7282349;19;153693;-53
2021/10/11 07:36:28;;;;;;;;;;;;;;;22.44;85.94;102877.91;7282527;19;152065;-53
2021/10/11 07:38:55;;;;;;;;;;;;;;;22.41;85.49;102884.06;7285114;19;153420;-53
2021/10/11 07:41:22;;;;;;;;;;;;;;;22.37;85.73;102888.56;7281509;19;153517;-53
2021/10/11 07:43:49;;;;;;;;;;;;;;;22.35;85.25;102900.06;7279005;19;152182;-53
2021/10/11 07:46:16;;;;;;;;;;;;;;;22.36;85.12;102898.97;7281925;19;153145;-53
2021/10/11 07:48:42;;;;;;;;;;;;;;;22.34;85.31;102898.41;7280616;19;154114;-53
2021/10/11 07:51:09;;;;;;;;;;;;;;;22.35;84.89;102902.91;7285438;19;152106;-53
2021/10/11 07:53:36;;;;;;;;;;;;;;;22.36;85.12;102900.94;7287854;19;153564;-52
2021/10/11 07:56:03;;;;;;;;;;;;;;;22.36;84.91;102910.22;7281847;19;151808;-53
2021/10/11 07:58:30;;;;;;;;;;;;;;;22.36;84.81;102903.75;7282304;19;152848;-53
2021/10/11 08:00:57;;;;;;;;;;;;;;;22.34;85.10;102908.81;7281882;19;153349;-53
2021/10/11 08:03:26;;;;;;;;;;;;;;;22.33;84.42;102904.31;7284053;19;151687;-52
2021/10/11 08:05:53;;;;;;;;;;;;;;;22.32;84.57;102914.72;7284133;19;153184;-52
2021/10/11 08:08:20;;;;;;;;;;;;;;;22.31;84.74;102917.78;7284013;19;153243;-53
2021/10/11 08:10:46;;;;;;;;;;;;;;;22.24;85.24;102915.25;7281665;19;152155;-53
2021/10/11 08:13:14;;;;;;;;;;;;;;;22.20;84.92;102916.06;7280703;19;153068;-53
2021/10/11 08:15:41;;;;;;;;;;;;;;;22.18;85.18;102919.13;7287664;19;154611;-53
2021/10/11 08:18:08;;;;;;;;;;;;;;;22.14;85.30;102920.81;7281536;19;152531;-53
2021/10/11 08:20:35;;;;;;;;;;;;;;;22.09;85.42;102915.13;7281907;19;153983;-53
2021/10/11 08:23:02;;;;;;;;;;;;;;;22.06;85.86;102919.34;7284714;19;151894;-53
2021/10/11 08:25:29;;;;;;;;;;;;;;;22.05;85.94;102922.44;7281021;19;152848;-54
2021/10/11 08:27:56;;;;;;;;;;;;;;;22.03;85.82;102919.06;7279904;19;153358;-53
2021/10/11 08:30:22;;;;;;;;;;;;;;;22.01;83.61;102916.50;7284748;19;152202;-53
2021/10/11 08:32:49;;;;;;;;;;;;;;;22.00;83.31;102922.38;7281267;19;153855;-53
2021/10/11 08:35:16;;;;;;;;;;;;;;;21.96;82.46;102924.06;7282260;19;153372;-53
2021/10/11 08:37:43;;;;;;;;;;;;;;;21.93;82.50;102927.41;7291114;19;152387;-54
2021/10/11 08:40:10;;;;;;;;;;;;;;;21.89;81.40;102924.28;7281381;19;153992;-53
2021/10/11 08:42:38;;;;;;;;;;;;;;;21.84;81.71;102929.00;7282064;19;151928;-53
2021/10/11 08:45:06;;;;;;;;;;;;;;;21.79;81.43;102920.50;7276053;19;152192;-53
2021/10/11 08:47:33;;;;;;;;;;;;;;;21.77;81.30;102926.41;7279855;19;154165;-53
2021/10/11 08:50:00;;;;;;;;;;;;;;;21.72;80.92;102935.66;7279498;19;151879;-53
2021/10/11 08:52:26;;;;;;;;;;;;;;;21.70;80.96;102922.97;7281853;19;153215;-53
2021/10/11 08:54:54;;;;;;;;;;;;;;;21.68;80.42;102922.38;7279414;19;153750;-53
2021/10/11 08:57:23;;;;;;;;;;;;;;;21.65;80.51;102925.75;7282693;19;151815;-53
2021/10/11 08:59:51;;;;;;;;;;;;;;;21.62;80.46;102932.72;7287806;19;153384;-53
2021/10/11 09:02:20;;;;;;;;;;;;;;;21.59;79.94;102929.63;7279521;19;151859;-53
2021/10/11 09:04:48;;;;;;;;;;;;;;;21.58;80.72;102925.94;7281563;19;152666;-54
2021/10/11 09:07:15;;;;;;;;;;;;;;;21.54;80.26;102926.75;7280978;19;154168;-53
2021/10/11 09:09:46;;;;;;;;;;;;;;;21.50;80.36;102923.63;7279763;19;152376;-53
2021/10/11 09:12:17;;;;;;;;;;;;;;;21.49;80.54;102924.75;7279945;19;152053;-53
2021/10/11 09:14:46;;;;;;;;;;;;;;;21.46;80.25;102935.69;7279817;19;153691;-53
2021/10/11 09:17:23;;;;;;;;;;;;;;;21.44;79.96;102935.13;7279799;19;152016;-53
2021/10/11 09:19:57;;;;;;;;;;;;;;;21.41;80.24;102930.84;7280974;19;152868;-53
2021/10/11 09:22:32;;;;;;;;;;;;;;;21.38;80.42;102925.78;7285642;19;151520;-53
2021/10/11 09:24:59;;;;;;;;;;;;;;;21.39;80.32;102916.22;7280129;19;153405;-53
2021/10/11 09:27:26;;;;;;;;;;;;;;;21.36;80.38;102922.38;7278017;19;152627;-53
2021/10/11 09:29:53;;;;;;;;;;;;;;;21.33;80.04;102931.34;7281188;19;151965;-53
2021/10/11 09:32:28;;;;;;;;;;;;;;;21.32;79.85;102926.81;7281248;19;153100;-53
2021/10/11 09:34:55;;;;;;;;;;;;;;;21.30;79.74;102927.09;7279250;19;153705;-54
2021/10/11 09:37:22;;;;;;;;;;;;;;;21.28;79.86;102932.13;7280757;19;151821;-54
2021/10/11 09:39:57;;;;;;;;;;;;;;;21.29;80.08;102936.66;7284641;19;153166;-53
2021/10/11 09:42:28;;;;;;;;;;;;;;;21.05;70.91;102932.41;7292817;19;155260;-53
2021/10/11 09:44:57;;;;;;;;;;;;;;;20.95;69.19;102925.81;7285384;19;153304;-53
2021/10/11 09:50:03;;;;;;;;;;;;;;;20.88;54.20;102933.63;7285366;19;151845;-54
2021/10/11 09:52:30;;;;;;;;;;;;;;;20.95;57.26;102928.63;7288414;19;152611;-54
2021/10/11 09:54:57;;;;;;;;;;;;;;;21.00;59.04;102925.88;7284531;19;154328;-54
2021/10/11 09:57:24;;;;;;;;;;;;;;;21.00;60.81;102932.34;7288586;19;151708;-55
2021/10/11 09:59:52;;;;;;;;;;;;;;;21.03;61.51;102925.38;7286573;19;152275;-55
2021/10/11 10:02:26;;;;;;;;;;;;;;;20.98;60.89;102917.72;7284775;19;153756;-55
2021/10/11 10:04:57;;;;;;;;;;;;;;;20.99;60.97;102910.97;7291552;19;152206;-55
2021/10/11 10:07:26;;;;;;;;;;;;;;;21.00;61.05;102912.69;7284745;19;153785;-55
2021/10/11 10:09:54;;;;;;;;;;;;;;;20.99;61.36;102916.59;7287145;19;151997;-55
2021/10/11 10:12:21;;;;;;;;;;;;;;;20.99;61.49;102915.75;7287204;19;152033;-54
2021/10/11 10:14:59;;;;;;;;;;;;;;;20.97;61.53;102913.22;7285618;19;153970;-54
2021/10/11 10:17:27;;;;;;;;;;;;;;;20.98;61.91;102916.88;7287554;19;151508;-54
2021/10/11 10:20:03;;;;;;;;;;;;;;;20.97;61.61;102915.19;7288133;19;152812;-54
2021/10/11 10:22:30;;;;;;;;;;;;;;;20.93;61.89;102919.63;7282218;19;153888;-54
2021/10/11 10:25:06;;;;;;;;;;;;;;;20.92;62.15;102918.78;7285179;19;152526;-54
2021/10/11 10:27:36;;;;;;;;;;;;;;;21.00;62.37;102926.72;7292430;19;153479;-55
2021/10/11 10:30:12;;;;;;;;;;;;;;;20.97;62.00;102920.78;7287748;19;151785;-54
2021/10/11 10:32:38;;;;;;;;;;;;;;;20.96;62.25;102924.72;7287780;19;152884;-54
2021/10/11 10:35:06;;;;;;;;;;;;;;;20.99;62.31;102930.66;7283618;19;153244;-58
2021/10/11 10:37:34;;;;;;;;;;;;;;;20.99;62.23;102927.84;7285148;19;152847;-55
2021/10/11 10:40:11;;;;;;;;;;;;;;;20.98;62.07;102916.88;7285115;19;153200;-55
2021/10/11 10:42:37;;;;;;;;;;;;;;;20.95;62.17;102921.03;7282100;19;154875;-55
2021/10/11 10:45:14;;;;;;;;;;;;;;;20.97;62.85;102912.38;7285391;19;152123;-55
2021/10/11 10:47:41;;;;;;;;;;;;;;;20.91;62.61;102917.06;7281098;19;153399;-54
2021/10/11 10:50:10;;;;;;;;;;;;;;;20.95;62.67;102918.25;7292957;19;153507;-55
2021/10/11 10:52:38;;;;;;;;;;;;;;;20.94;62.84;102918.53;7281866;19;154595;-55
2021/10/11 10:55:05;;;;;;;;;;;;;;;20.91;62.40;102922.69;7282876;19;154340;-55
2021/10/11 10:57:32;;;;;;;;;;;;;;;20.92;62.74;102917.91;7286121;19;151782;-55
2021/10/11 11:00:00;;;;;;;;;;;;;;;20.90;62.86;102928.56;7285023;19;153093;-55
2021/10/11 11:02:29;;;;;;;;;;;;;;;20.89;62.94;102922.13;7279506;19;152326;-55
2021/10/11 11:04:58;;;;;;;;;;;;;;;20.87;62.70;102913.09;7283946;19;151824;-54
2021/10/11 11:07:26;;;;;;;;;;;;;;;20.88;63.05;102919.56;7285260;19;153090;-55
2021/10/11 11:09:53;;;;;;;;;;;;;;;20.89;62.73;102926.88;7284040;19;153818;-55
2021/10/11 11:12:29;;;;;;;;;;;;;;;20.87;62.97;102927.13;7294402;19;152428;-55
2021/10/11 11:14:55;;;;;;;;;;;;;;;20.87;63.16;102921.53;7285087;19;153264;-55
2021/10/11 11:17:27;;;;;;;;;;;;;;;20.87;62.96;102901.84;7284713;19;152012;-55
2021/10/11 11:19:54;;;;;;;;;;;;;;;20.84;62.58;102908.84;7283256;19;153898;-55
2021/10/11 11:22:35;;;;;;;;;;;;;;;20.89;62.77;102907.22;7280763;19;153269;-55
2021/10/11 11:25:04;;;;;;;;;;;;;;;20.96;62.31;102913.47;7285876;19;152175;-55
2021/10/11 11:27:34;;;;;;;;;;;;;;;21.02;62.43;102913.28;7285283;19;153275;-55
2021/10/11 11:30:04;;;;;;;;;;;;;;;21.08;62.23;102905.72;7283019;19;153600;-55
2021/10/11 11:32:32;;;;;;;;;;;;;;;21.11;62.21;102900.44;7291110;19;151844;-55
2021/10/11 11:34:59;;;;;;;;;;;;;;;21.17;62.28;102905.03;7283848;19;152278;-55
2021/10/11 11:37:25;;;;;;;;;;;;;;;21.20;62.70;102898.03;7285920;19;152585;-55
2021/10/11 11:40:03;;;;;;;;;;;;;;;21.23;62.88;102900.31;7281759;19;152248;-55
2021/10/11 11:42:30;;;;;;;;;;;;;;;21.24;62.25;102902.88;7282127;19;154125;-53
2021/10/11 11:44:56;;;;;;;;;;;;;;;21.30;62.01;102895.34;7282937;19;151821;-54
2021/10/11 11:47:27;;;;;;;;;;;;;;;21.32;62.42;102893.09;7276268;19;152682;-53
2021/10/11 11:49:54;;;;;;;;;;;;;;;21.38;61.60;102892.03;7274581;19;153493;-53
2021/10/11 11:52:20;;;;;;;;;;;;;;;21.42;61.08;102883.91;7284278;19;151810;-53
2021/10/11 11:54:57;;;;;;;;;;;;;;;21.45;60.90;102886.16;7291817;19;152700;-53
2021/10/11 11:57:24;;;;;;;;;;;;;;;21.47;60.92;102878.31;7280950;19;151571;-53
2021/10/11 11:59:51;;;;;;;;;;;;;;;21.50;60.75;102877.78;7282455;19;152790;-53
2021/10/11 12:02:18;;;;;;;;;;;;;;;21.51;60.37;102883.16;7281139;19;152290;-54
2021/10/11 12:04:46;;;;;;;;;;;;;;;21.53;60.24;102883.72;7284576;19;151794;-54
2021/10/11 12:07:14;;;;;;;;;;;;;;;21.56;60.02;102883.19;7284668;19;153880;-53
2021/10/11 12:09:43;;;;;;;;;;;;;;;21.57;60.22;102872.78;7284090;19;153581;-54
2021/10/11 12:12:13;;;;;;;;;;;;;;;21.59;60.02;102881.78;7280822;19;151807;-54
2021/10/11 12:14:40;;;;;;;;;;;;;;;21.60;60.06;102866.63;7284274;19;153037;-53
2021/10/11 12:17:07;;;;;;;;;;;;;;;21.63;59.58;102866.91;7289630;19;154159;-54
2021/10/11 12:19:37;;;;;;;;;;;;;;;21.64;59.63;102868.63;7280951;19;152698;-53
2021/10/11 12:22:04;;;;;;;;;;;;;;;21.64;59.45;102848.94;7277732;19;153954;-53
2021/10/11 12:24:32;;;;;;;;;;;;;;;21.65;59.46;102856.25;7282403;19;151767;-53
2021/10/11 12:27:00;;;;;;;;;;;;;;;21.65;59.76;102856.25;7283929;19;153280;-53
2021/10/11 12:29:29;;;;;;;;;;;;;;;21.66;59.08;102859.94;7280409;19;153966;-54
2021/10/11 12:32:00;;;;;;;;;;;;;;;21.68;59.32;102864.16;7282587;19;151854;-53
2021/10/11 12:34:29;;;;;;;;;;;;;;;21.69;59.21;102863.03;7282697;19;152067;-53
2021/10/11 12:36:56;;;;;;;;;;;;;;;21.70;59.17;102861.94;7280734;19;152728;-54